sensor_id;sensor_type;location;lat;lon;timestamp;P1;durP1;ratioP1;P2;durP2;ratioP2
14100;SDS011;7127;49.372;8.166;2023-09-18T00:02:01;1.73;;;1.30;;
14100;SDS011;7127;49.372;8.166;2023-09-18T00:04:28;1.43;;;1.30;;
14100;SDS011;7127;49.372;8.166;2023-09-18T00:06:55;2.30;;;1.33;;
14100;SDS011;7127;49.372;8.166;2023-09-18T00:09:22;1.90;;;1.60;;
14100;SDS011;7127;49.372;8.166;2023-09-18T00:11:48;3.60;;;1.50;;
14100;SDS011;7127;49.372;8.166;2023-09-18T00:14:16;1.60;;;1.50;;
14100;SDS011;7127;49.372;8.166;2023-09-18T00:16:43;2.53;;;1.50;;
14100;SDS011;7127;49.372;8.166;2023-09-18T00:19:10;2.47;;;1.40;;
14100;SDS011;7127;49.372;8.166;2023-09-18T00:21:37;2.47;;;1.43;;
14100;SDS011;7127;49.372;8.166;2023-09-18T00:24:04;1.67;;;1.50;;
14100;SDS011;7127;49.372;8.166;2023-09-18T00:26:33;1.67;;;1.30;;
14100;SDS011;7127;49.372;8.166;2023-09-18T00:29:00;2.13;;;1.40;;
14100;SDS011;7127;49.372;8.166;2023-09-18T00:31:28;2.72;;;1.58;;
14100;SDS011;7127;49.372;8.166;2023-09-18T00:33:54;2.47;;;1.40;;
14100;SDS011;7127;49.372;8.166;2023-09-18T00:36:21;3.57;;;1.70;;
14100;SDS011;7127;49.372;8.166;2023-09-18T00:38:48;2.13;;;1.50;;
14100;SDS011;7127;49.372;8.166;2023-09-18T00:41:15;1.30;;;1.20;;
14100;SDS011;7127;49.372;8.166;2023-09-18T00:43:42;4.30;;;1.43;;
14100;SDS011;7127;49.372;8.166;2023-09-18T00:46:08;2.07;;;1.30;;
14100;SDS011;7127;49.372;8.166;2023-09-18T00:48:37;2.37;;;1.40;;
14100;SDS011;7127;49.372;8.166;2023-09-18T00:51:04;2.50;;;1.50;;
14100;SDS011;7127;49.372;8.166;2023-09-18T00:53:31;2.30;;;1.50;;
14100;SDS011;7127;49.372;8.166;2023-09-18T00:55:57;1.97;;;1.50;;
14100;SDS011;7127;49.372;8.166;2023-09-18T00:58:26;3.60;;;1.55;;
14100;SDS011;7127;49.372;8.166;2023-09-18T01:00:53;2.47;;;1.37;;
14100;SDS011;7127;49.372;8.166;2023-09-18T01:03:21;2.33;;;1.70;;
14100;SDS011;7127;49.372;8.166;2023-09-18T01:05:52;2.70;;;1.30;;
14100;SDS011;7127;49.372;8.166;2023-09-18T01:08:20;1.38;;;1.17;;
14100;SDS011;7127;49.372;8.166;2023-09-18T01:10:47;3.43;;;1.47;;
14100;SDS011;7127;49.372;8.166;2023-09-18T01:13:21;2.50;;;1.70;;
14100;SDS011;7127;49.372;8.166;2023-09-18T01:15:54;1.83;;;1.40;;
14100;SDS011;7127;49.372;8.166;2023-09-18T01:18:24;2.45;;;1.40;;
14100;SDS011;7127;49.372;8.166;2023-09-18T01:20:53;3.43;;;1.60;;
14100;SDS011;7127;49.372;8.166;2023-09-18T01:23:21;1.80;;;1.40;;
14100;SDS011;7127;49.372;8.166;2023-09-18T01:25:48;1.30;;;1.20;;
14100;SDS011;7127;49.372;8.166;2023-09-18T01:28:14;1.73;;;1.30;;
14100;SDS011;7127;49.372;8.166;2023-09-18T01:30:42;1.10;;;1.00;;
14100;SDS011;7127;49.372;8.166;2023-09-18T01:33:09;2.67;;;1.50;;
14100;SDS011;7127;49.372;8.166;2023-09-18T01:35:37;2.63;;;1.60;;
14100;SDS011;7127;49.372;8.166;2023-09-18T01:38:04;2.45;;;1.50;;
14100;SDS011;7127;49.372;8.166;2023-09-18T01:40:32;3.37;;;1.50;;
14100;SDS011;7127;49.372;8.166;2023-09-18T01:42:59;3.13;;;1.57;;
14100;SDS011;7127;49.372;8.166;2023-09-18T01:45:26;3.38;;;1.60;;
14100;SDS011;7127;49.372;8.166;2023-09-18T01:47:54;6.15;;;1.70;;
14100;SDS011;7127;49.372;8.166;2023-09-18T01:50:21;1.50;;;1.40;;
14100;SDS011;7127;49.372;8.166;2023-09-18T01:52:48;1.55;;;1.30;;
14100;SDS011;7127;49.372;8.166;2023-09-18T01:55:13;1.80;;;1.40;;
14100;SDS011;7127;49.372;8.166;2023-09-18T01:57:42;1.80;;;1.30;;
14100;SDS011;7127;49.372;8.166;2023-09-18T02:00:09;1.50;;;1.30;;
14100;SDS011;7127;49.372;8.166;2023-09-18T02:02:37;2.23;;;1.50;;
14100;SDS011;7127;49.372;8.166;2023-09-18T02:05:05;1.90;;;1.50;;
14100;SDS011;7127;49.372;8.166;2023-09-18T02:07:32;2.57;;;1.87;;
14100;SDS011;7127;49.372;8.166;2023-09-18T02:09:59;2.77;;;1.70;;
14100;SDS011;7127;49.372;8.166;2023-09-18T02:12:25;2.00;;;1.47;;
14100;SDS011;7127;49.372;8.166;2023-09-18T02:14:54;2.70;;;1.60;;
14100;SDS011;7127;49.372;8.166;2023-09-18T02:17:22;3.50;;;1.70;;
14100;SDS011;7127;49.372;8.166;2023-09-18T02:19:49;2.20;;;1.67;;
14100;SDS011;7127;49.372;8.166;2023-09-18T02:22:16;3.07;;;1.50;;
14100;SDS011;7127;49.372;8.166;2023-09-18T02:24:43;2.13;;;1.63;;
14100;SDS011;7127;49.372;8.166;2023-09-18T02:27:10;3.37;;;1.83;;
14100;SDS011;7127;49.372;8.166;2023-09-18T02:29:37;3.10;;;1.80;;
14100;SDS011;7127;49.372;8.166;2023-09-18T02:32:05;3.80;;;2.00;;
14100;SDS011;7127;49.372;8.166;2023-09-18T02:34:32;5.33;;;1.90;;
14100;SDS011;7127;49.372;8.166;2023-09-18T02:36:59;4.53;;;1.93;;
14100;SDS011;7127;49.372;8.166;2023-09-18T02:39:25;4.38;;;2.00;;
14100;SDS011;7127;49.372;8.166;2023-09-18T02:41:52;3.73;;;1.80;;
14100;SDS011;7127;49.372;8.166;2023-09-18T02:44:19;7.57;;;2.23;;
14100;SDS011;7127;49.372;8.166;2023-09-18T02:46:46;3.67;;;1.70;;
14100;SDS011;7127;49.372;8.166;2023-09-18T02:49:14;3.33;;;1.87;;
14100;SDS011;7127;49.372;8.166;2023-09-18T02:51:41;3.75;;;1.90;;
14100;SDS011;7127;49.372;8.166;2023-09-18T02:54:07;6.60;;;1.90;;
14100;SDS011;7127;49.372;8.166;2023-09-18T02:56:34;4.50;;;1.60;;
14100;SDS011;7127;49.372;8.166;2023-09-18T02:59:01;5.38;;;1.85;;
14100;SDS011;7127;49.372;8.166;2023-09-18T03:01:28;3.67;;;1.42;;
14100;SDS011;7127;49.372;8.166;2023-09-18T03:03:55;5.07;;;1.70;;
14100;SDS011;7127;49.372;8.166;2023-09-18T03:06:23;5.70;;;1.55;;
14100;SDS011;7127;49.372;8.166;2023-09-18T03:08:50;3.95;;;1.58;;
14100;SDS011;7127;49.372;8.166;2023-09-18T03:11:17;5.50;;;1.83;;
14100;SDS011;7127;49.372;8.166;2023-09-18T03:13:44;5.00;;;1.73;;
14100;SDS011;7127;49.372;8.166;2023-09-18T03:16:12;4.40;;;1.45;;
14100;SDS011;7127;49.372;8.166;2023-09-18T03:18:39;4.13;;;1.50;;
14100;SDS011;7127;49.372;8.166;2023-09-18T03:21:06;4.72;;;1.80;;
14100;SDS011;7127;49.372;8.166;2023-09-18T03:23:34;2.97;;;1.35;;
14100;SDS011;7127;49.372;8.166;2023-09-18T03:26:01;3.58;;;1.80;;
14100;SDS011;7127;49.372;8.166;2023-09-18T03:28:28;4.85;;;1.50;;
14100;SDS011;7127;49.372;8.166;2023-09-18T03:30:55;3.85;;;1.58;;
14100;SDS011;7127;49.372;8.166;2023-09-18T03:33:23;2.25;;;1.45;;
14100;SDS011;7127;49.372;8.166;2023-09-18T03:35:50;3.67;;;1.63;;
14100;SDS011;7127;49.372;8.166;2023-09-18T03:38:19;5.07;;;1.92;;
14100;SDS011;7127;49.372;8.166;2023-09-18T03:40:48;5.15;;;1.50;;
14100;SDS011;7127;49.372;8.166;2023-09-18T03:43:15;2.22;;;1.20;;
14100;SDS011;7127;49.372;8.166;2023-09-18T03:45:42;3.08;;;1.40;;
14100;SDS011;7127;49.372;8.166;2023-09-18T03:48:09;6.85;;;1.55;;
14100;SDS011;7127;49.372;8.166;2023-09-18T03:50:36;2.97;;;1.30;;
14100;SDS011;7127;49.372;8.166;2023-09-18T03:53:03;3.10;;;1.40;;
14100;SDS011;7127;49.372;8.166;2023-09-18T03:55:30;3.38;;;1.52;;
14100;SDS011;7127;49.372;8.166;2023-09-18T03:57:58;3.55;;;1.70;;
14100;SDS011;7127;49.372;8.166;2023-09-18T04:00:25;5.40;;;1.60;;
14100;SDS011;7127;49.372;8.166;2023-09-18T04:02:52;2.75;;;1.58;;
14100;SDS011;7127;49.372;8.166;2023-09-18T04:05:19;5.22;;;1.42;;
14100;SDS011;7127;49.372;8.166;2023-09-18T04:07:46;4.13;;;1.50;;
14100;SDS011;7127;49.372;8.166;2023-09-18T04:10:12;4.70;;;1.33;;
14100;SDS011;7127;49.372;8.166;2023-09-18T04:12:44;3.97;;;1.85;;
14100;SDS011;7127;49.372;8.166;2023-09-18T04:15:14;4.30;;;1.47;;
14100;SDS011;7127;49.372;8.166;2023-09-18T04:17:42;4.60;;;1.70;;
14100;SDS011;7127;49.372;8.166;2023-09-18T04:20:10;3.27;;;1.60;;
14100;SDS011;7127;49.372;8.166;2023-09-18T04:22:42;5.67;;;1.93;;
14100;SDS011;7127;49.372;8.166;2023-09-18T04:25:10;5.80;;;1.50;;
14100;SDS011;7127;49.372;8.166;2023-09-18T04:27:37;6.33;;;2.03;;
14100;SDS011;7127;49.372;8.166;2023-09-18T04:30:04;3.67;;;1.63;;
14100;SDS011;7127;49.372;8.166;2023-09-18T04:32:35;6.87;;;2.07;;
14100;SDS011;7127;49.372;8.166;2023-09-18T04:35:02;4.57;;;1.60;;
14100;SDS011;7127;49.372;8.166;2023-09-18T04:37:30;4.43;;;1.50;;
14100;SDS011;7127;49.372;8.166;2023-09-18T04:39:57;5.60;;;2.00;;
14100;SDS011;7127;49.372;8.166;2023-09-18T04:42:24;5.37;;;1.63;;
14100;SDS011;7127;49.372;8.166;2023-09-18T04:44:51;6.13;;;2.13;;
14100;SDS011;7127;49.372;8.166;2023-09-18T04:47:18;5.10;;;1.80;;
14100;SDS011;7127;49.372;8.166;2023-09-18T04:49:46;3.40;;;1.57;;
14100;SDS011;7127;49.372;8.166;2023-09-18T04:52:14;4.20;;;1.60;;
14100;SDS011;7127;49.372;8.166;2023-09-18T04:54:41;4.30;;;1.50;;
14100;SDS011;7127;49.372;8.166;2023-09-18T04:57:07;4.43;;;1.50;;
14100;SDS011;7127;49.372;8.166;2023-09-18T04:59:34;3.80;;;1.60;;
14100;SDS011;7127;49.372;8.166;2023-09-18T05:02:01;4.93;;;1.80;;
14100;SDS011;7127;49.372;8.166;2023-09-18T05:04:29;3.67;;;1.90;;
14100;SDS011;7127;49.372;8.166;2023-09-18T05:06:58;3.27;;;1.80;;
14100;SDS011;7127;49.372;8.166;2023-09-18T05:09:26;5.93;;;2.00;;
14100;SDS011;7127;49.372;8.166;2023-09-18T05:11:53;4.33;;;1.87;;
14100;SDS011;7127;49.372;8.166;2023-09-18T05:14:20;3.17;;;1.60;;
14100;SDS011;7127;49.372;8.166;2023-09-18T05:16:47;4.10;;;1.57;;
14100;SDS011;7127;49.372;8.166;2023-09-18T05:19:13;4.43;;;1.50;;
14100;SDS011;7127;49.372;8.166;2023-09-18T05:21:40;5.77;;;1.93;;
14100;SDS011;7127;49.372;8.166;2023-09-18T05:24:12;4.33;;;1.83;;
14100;SDS011;7127;49.372;8.166;2023-09-18T05:26:39;2.57;;;1.37;;
14100;SDS011;7127;49.372;8.166;2023-09-18T05:29:06;3.87;;;1.70;;
14100;SDS011;7127;49.372;8.166;2023-09-18T05:31:34;5.43;;;2.00;;
14100;SDS011;7127;49.372;8.166;2023-09-18T05:34:02;3.93;;;1.60;;
14100;SDS011;7127;49.372;8.166;2023-09-18T05:36:29;3.47;;;1.73;;
14100;SDS011;7127;49.372;8.166;2023-09-18T05:38:56;3.13;;;1.43;;
14100;SDS011;7127;49.372;8.166;2023-09-18T05:41:24;5.20;;;1.70;;
14100;SDS011;7127;49.372;8.166;2023-09-18T05:43:53;4.70;;;1.83;;
14100;SDS011;7127;49.372;8.166;2023-09-18T05:46:20;3.83;;;1.27;;
14100;SDS011;7127;49.372;8.166;2023-09-18T05:48:47;2.37;;;1.37;;
14100;SDS011;7127;49.372;8.166;2023-09-18T05:51:14;6.03;;;1.90;;
14100;SDS011;7127;49.372;8.166;2023-09-18T05:53:41;2.50;;;1.30;;
14100;SDS011;7127;49.372;8.166;2023-09-18T05:56:08;5.77;;;1.50;;
14100;SDS011;7127;49.372;8.166;2023-09-18T05:58:36;2.00;;;1.47;;
14100;SDS011;7127;49.372;8.166;2023-09-18T06:01:04;2.33;;;1.40;;
14100;SDS011;7127;49.372;8.166;2023-09-18T06:03:31;4.17;;;1.60;;
14100;SDS011;7127;49.372;8.166;2023-09-18T06:06:00;3.70;;;1.80;;
14100;SDS011;7127;49.372;8.166;2023-09-18T06:08:28;3.97;;;1.70;;
14100;SDS011;7127;49.372;8.166;2023-09-18T06:10:55;2.40;;;1.40;;
14100;SDS011;7127;49.372;8.166;2023-09-18T06:13:24;3.13;;;1.70;;
14100;SDS011;7127;49.372;8.166;2023-09-18T06:15:52;5.20;;;1.50;;
14100;SDS011;7127;49.372;8.166;2023-09-18T06:18:20;3.90;;;1.53;;
14100;SDS011;7127;49.372;8.166;2023-09-18T06:20:47;5.93;;;1.43;;
14100;SDS011;7127;49.372;8.166;2023-09-18T06:23:14;3.10;;;1.30;;
14100;SDS011;7127;49.372;8.166;2023-09-18T06:25:41;4.90;;;1.70;;
14100;SDS011;7127;49.372;8.166;2023-09-18T06:28:07;3.57;;;1.60;;
14100;SDS011;7127;49.372;8.166;2023-09-18T06:30:35;2.87;;;1.40;;
14100;SDS011;7127;49.372;8.166;2023-09-18T06:33:03;5.20;;;1.47;;
14100;SDS011;7127;49.372;8.166;2023-09-18T06:35:30;2.40;;;1.20;;
14100;SDS011;7127;49.372;8.166;2023-09-18T06:37:57;4.43;;;1.50;;
14100;SDS011;7127;49.372;8.166;2023-09-18T06:40:24;3.83;;;1.50;;
14100;SDS011;7127;49.372;8.166;2023-09-18T06:42:51;3.58;;;1.13;;
14100;SDS011;7127;49.372;8.166;2023-09-18T06:45:25;3.00;;;1.20;;
14100;SDS011;7127;49.372;8.166;2023-09-18T06:47:51;2.20;;;1.37;;
14100;SDS011;7127;49.372;8.166;2023-09-18T06:50:20;3.35;;;1.38;;
14100;SDS011;7127;49.372;8.166;2023-09-18T06:52:47;3.22;;;1.27;;
14100;SDS011;7127;49.372;8.166;2023-09-18T06:55:14;3.00;;;1.20;;
14100;SDS011;7127;49.372;8.166;2023-09-18T06:57:41;1.60;;;1.17;;
14100;SDS011;7127;49.372;8.166;2023-09-18T07:00:09;2.17;;;1.00;;
14100;SDS011;7127;49.372;8.166;2023-09-18T07:02:36;2.90;;;1.25;;
14100;SDS011;7127;49.372;8.166;2023-09-18T07:05:03;4.77;;;1.10;;
14100;SDS011;7127;49.372;8.166;2023-09-18T07:07:32;1.38;;;0.90;;
14100;SDS011;7127;49.372;8.166;2023-09-18T07:09:58;2.40;;;1.00;;
14100;SDS011;7127;49.372;8.166;2023-09-18T07:12:25;2.40;;;1.13;;
14100;SDS011;7127;49.372;8.166;2023-09-18T07:14:53;1.58;;;0.88;;
14100;SDS011;7127;49.372;8.166;2023-09-18T07:17:20;1.90;;;1.10;;
14100;SDS011;7127;49.372;8.166;2023-09-18T07:19:47;2.77;;;1.10;;
14100;SDS011;7127;49.372;8.166;2023-09-18T07:22:13;0.87;;;0.60;;
14100;SDS011;7127;49.372;8.166;2023-09-18T07:24:42;2.60;;;1.00;;
14100;SDS011;7127;49.372;8.166;2023-09-18T07:27:10;2.22;;;1.15;;
14100;SDS011;7127;49.372;8.166;2023-09-18T07:29:38;1.47;;;0.90;;
14100;SDS011;7127;49.372;8.166;2023-09-18T07:32:05;1.75;;;1.00;;
14100;SDS011;7127;49.372;8.166;2023-09-18T07:34:32;1.37;;;0.87;;
14100;SDS011;7127;49.372;8.166;2023-09-18T07:37:00;1.50;;;1.02;;
14100;SDS011;7127;49.372;8.166;2023-09-18T07:39:26;2.15;;;1.00;;
14100;SDS011;7127;49.372;8.166;2023-09-18T07:41:55;2.00;;;1.13;;
14100;SDS011;7127;49.372;8.166;2023-09-18T07:44:21;3.83;;;1.05;;
14100;SDS011;7127;49.372;8.166;2023-09-18T07:46:48;2.92;;;0.93;;
14100;SDS011;7127;49.372;8.166;2023-09-18T07:49:15;4.40;;;1.55;;
14100;SDS011;7127;49.372;8.166;2023-09-18T07:51:43;3.00;;;0.90;;
14100;SDS011;7127;49.372;8.166;2023-09-18T07:54:13;1.53;;;1.00;;
14100;SDS011;7127;49.372;8.166;2023-09-18T07:56:40;2.47;;;1.10;;
14100;SDS011;7127;49.372;8.166;2023-09-18T07:59:09;1.33;;;0.80;;
14100;SDS011;7127;49.372;8.166;2023-09-18T08:01:36;1.40;;;0.88;;
14100;SDS011;7127;49.372;8.166;2023-09-18T08:04:03;4.23;;;1.00;;
14100;SDS011;7127;49.372;8.166;2023-09-18T08:06:30;1.67;;;0.77;;
14100;SDS011;7127;49.372;8.166;2023-09-18T08:08:57;3.37;;;0.87;;
14100;SDS011;7127;49.372;8.166;2023-09-18T08:11:24;2.55;;;1.08;;
14100;SDS011;7127;49.372;8.166;2023-09-18T08:13:51;2.58;;;1.00;;
14100;SDS011;7127;49.372;8.166;2023-09-18T08:16:19;1.53;;;0.83;;
14100;SDS011;7127;49.372;8.166;2023-09-18T08:18:46;3.75;;;1.05;;
14100;SDS011;7127;49.372;8.166;2023-09-18T08:21:13;0.80;;;0.80;;
14100;SDS011;7127;49.372;8.166;2023-09-18T08:23:39;2.77;;;0.90;;
14100;SDS011;7127;49.372;8.166;2023-09-18T08:26:07;1.95;;;1.00;;
14100;SDS011;7127;49.372;8.166;2023-09-18T08:28:34;0.90;;;0.57;;
14100;SDS011;7127;49.372;8.166;2023-09-18T08:31:03;1.07;;;0.83;;
14100;SDS011;7127;49.372;8.166;2023-09-18T08:33:32;1.85;;;0.50;;
14100;SDS011;7127;49.372;8.166;2023-09-18T08:35:59;2.17;;;0.90;;
14100;SDS011;7127;49.372;8.166;2023-09-18T08:38:26;1.63;;;0.85;;
14100;SDS011;7127;49.372;8.166;2023-09-18T08:40:53;2.47;;;1.00;;
14100;SDS011;7127;49.372;8.166;2023-09-18T08:43:20;1.50;;;0.95;;
14100;SDS011;7127;49.372;8.166;2023-09-18T08:45:50;3.63;;;1.25;;
14100;SDS011;7127;49.372;8.166;2023-09-18T08:48:18;0.70;;;0.70;;
14100;SDS011;7127;49.372;8.166;2023-09-18T08:50:46;2.33;;;0.90;;
14100;SDS011;7127;49.372;8.166;2023-09-18T08:53:13;2.72;;;0.82;;
14100;SDS011;7127;49.372;8.166;2023-09-18T08:55:40;2.08;;;0.90;;
14100;SDS011;7127;49.372;8.166;2023-09-18T08:58:07;4.38;;;0.90;;
14100;SDS011;7127;49.372;8.166;2023-09-18T09:00:36;0.98;;;0.77;;
14100;SDS011;7127;49.372;8.166;2023-09-18T09:03:03;1.20;;;0.80;;
14100;SDS011;7127;49.372;8.166;2023-09-18T09:05:30;1.63;;;1.00;;
14100;SDS011;7127;49.372;8.166;2023-09-18T09:07:59;1.25;;;0.88;;
14100;SDS011;7127;49.372;8.166;2023-09-18T09:10:26;1.58;;;0.85;;
14100;SDS011;7127;49.372;8.166;2023-09-18T09:12:54;2.88;;;1.00;;
14100;SDS011;7127;49.372;8.166;2023-09-18T09:15:22;2.15;;;0.95;;
14100;SDS011;7127;49.372;8.166;2023-09-18T09:18:02;2.75;;;1.08;;
14100;SDS011;7127;49.372;8.166;2023-09-18T09:20:30;1.50;;;0.90;;
14100;SDS011;7127;49.372;8.166;2023-09-18T09:23:02;1.58;;;0.75;;
14100;SDS011;7127;49.372;8.166;2023-09-18T09:25:32;0.95;;;0.82;;
14100;SDS011;7127;49.372;8.166;2023-09-18T09:27:59;1.00;;;0.65;;
14100;SDS011;7127;49.372;8.166;2023-09-18T09:30:28;1.85;;;0.80;;
14100;SDS011;7127;49.372;8.166;2023-09-18T09:32:56;1.25;;;0.70;;
14100;SDS011;7127;49.372;8.166;2023-09-18T09:35:24;2.72;;;0.82;;
14100;SDS011;7127;49.372;8.166;2023-09-18T09:37:56;1.63;;;0.80;;
14100;SDS011;7127;49.372;8.166;2023-09-18T09:40:28;2.47;;;0.90;;
14100;SDS011;7127;49.372;8.166;2023-09-18T09:42:56;1.20;;;0.90;;
14100;SDS011;7127;49.372;8.166;2023-09-18T09:45:27;2.33;;;0.90;;
14100;SDS011;7127;49.372;8.166;2023-09-18T09:48:00;1.58;;;0.90;;
14100;SDS011;7127;49.372;8.166;2023-09-18T09:50:30;1.65;;;0.95;;
14100;SDS011;7127;49.372;8.166;2023-09-18T09:52:57;2.22;;;0.57;;
14100;SDS011;7127;49.372;8.166;2023-09-18T09:55:25;1.92;;;0.82;;
14100;SDS011;7127;49.372;8.166;2023-09-18T09:57:55;1.63;;;0.93;;
14100;SDS011;7127;49.372;8.166;2023-09-18T10:00:25;1.38;;;0.85;;
14100;SDS011;7127;49.372;8.166;2023-09-18T10:02:57;3.25;;;1.10;;
14100;SDS011;7127;49.372;8.166;2023-09-18T10:05:27;1.15;;;0.73;;
14100;SDS011;7127;49.372;8.166;2023-09-18T10:07:57;2.08;;;1.00;;
14100;SDS011;7127;49.372;8.166;2023-09-18T10:10:30;0.80;;;0.65;;
14100;SDS011;7127;49.372;8.166;2023-09-18T10:13:07;1.85;;;0.88;;
14100;SDS011;7127;49.372;8.166;2023-09-18T10:15:38;2.15;;;0.70;;
14100;SDS011;7127;49.372;8.166;2023-09-18T10:18:10;1.70;;;0.98;;
14100;SDS011;7127;49.372;8.166;2023-09-18T10:20:43;1.83;;;0.77;;
14100;SDS011;7127;49.372;8.166;2023-09-18T10:23:15;1.25;;;0.70;;
14100;SDS011;7127;49.372;8.166;2023-09-18T10:25:56;2.33;;;1.05;;
14100;SDS011;7127;49.372;8.166;2023-09-18T10:28:30;1.10;;;0.70;;
14100;SDS011;7127;49.372;8.166;2023-09-18T10:30:57;1.02;;;0.73;;
14100;SDS011;7127;49.372;8.166;2023-09-18T10:33:28;2.38;;;0.90;;
14100;SDS011;7127;49.372;8.166;2023-09-18T10:35:56;2.20;;;0.90;;
14100;SDS011;7127;49.372;8.166;2023-09-18T10:38:26;1.58;;;0.80;;
14100;SDS011;7127;49.372;8.166;2023-09-18T10:40:57;1.77;;;0.80;;
14100;SDS011;7127;49.372;8.166;2023-09-18T10:43:25;2.80;;;0.90;;
14100;SDS011;7127;49.372;8.166;2023-09-18T10:45:51;1.00;;;0.65;;
14100;SDS011;7127;49.372;8.166;2023-09-18T10:48:19;2.13;;;0.93;;
14100;SDS011;7127;49.372;8.166;2023-09-18T10:50:48;1.63;;;0.90;;
14100;SDS011;7127;49.372;8.166;2023-09-18T10:53:17;1.17;;;0.85;;
14100;SDS011;7127;49.372;8.166;2023-09-18T10:55:48;1.65;;;0.90;;
14100;SDS011;7127;49.372;8.166;2023-09-18T10:58:24;1.83;;;1.30;;
14100;SDS011;7127;49.372;8.166;2023-09-18T11:00:51;1.15;;;0.98;;
14100;SDS011;7127;49.372;8.166;2023-09-18T11:03:21;2.30;;;1.20;;
14100;SDS011;7127;49.372;8.166;2023-09-18T11:05:49;1.65;;;0.85;;
14100;SDS011;7127;49.372;8.166;2023-09-18T11:08:29;0.88;;;0.60;;
14100;SDS011;7127;49.372;8.166;2023-09-18T11:10:59;1.67;;;0.75;;
14100;SDS011;7127;49.372;8.166;2023-09-18T11:13:36;1.67;;;0.80;;
14100;SDS011;7127;49.372;8.166;2023-09-18T11:16:16;2.38;;;0.90;;
14100;SDS011;7127;49.372;8.166;2023-09-18T11:18:50;2.78;;;0.80;;
14100;SDS011;7127;49.372;8.166;2023-09-18T11:21:21;1.02;;;0.80;;
14100;SDS011;7127;49.372;8.166;2023-09-18T11:23:57;2.45;;;0.80;;
14100;SDS011;7127;49.372;8.166;2023-09-18T11:26:28;1.23;;;0.77;;
14100;SDS011;7127;49.372;8.166;2023-09-18T11:28:58;2.88;;;0.90;;
14100;SDS011;7127;49.372;8.166;2023-09-18T11:31:42;1.17;;;0.63;;
14100;SDS011;7127;49.372;8.166;2023-09-18T11:34:13;1.02;;;0.68;;
14100;SDS011;7127;49.372;8.166;2023-09-18T11:36:40;1.90;;;0.80;;
14100;SDS011;7127;49.372;8.166;2023-09-18T11:39:08;1.33;;;0.88;;
14100;SDS011;7127;49.372;8.166;2023-09-18T11:41:36;2.10;;;0.90;;
14100;SDS011;7127;49.372;8.166;2023-09-18T11:47:10;1.92;;;0.85;;
14100;SDS011;7127;49.372;8.166;2023-09-18T11:49:42;1.08;;;0.88;;
14100;SDS011;7127;49.372;8.166;2023-09-18T11:52:15;1.67;;;1.08;;
14100;SDS011;7127;49.372;8.166;2023-09-18T11:54:43;2.63;;;1.00;;
14100;SDS011;7127;49.372;8.166;2023-09-18T11:57:12;1.05;;;0.70;;
14100;SDS011;7127;49.372;8.166;2023-09-18T11:59:41;1.60;;;0.90;;
14100;SDS011;7127;49.372;8.166;2023-09-18T12:02:09;0.93;;;0.70;;
14100;SDS011;7127;49.372;8.166;2023-09-18T12:04:36;1.10;;;0.80;;
14100;SDS011;7127;49.372;8.166;2023-09-18T12:07:04;1.35;;;0.77;;
14100;SDS011;7127;49.372;8.166;2023-09-18T12:09:31;1.05;;;0.80;;
14100;SDS011;7127;49.372;8.166;2023-09-18T12:11:58;4.13;;;0.80;;
14100;SDS011;7127;49.372;8.166;2023-09-18T12:14:29;1.70;;;0.80;;
14100;SDS011;7127;49.372;8.166;2023-09-18T12:16:58;1.15;;;0.73;;
14100;SDS011;7127;49.372;8.166;2023-09-18T12:19:26;1.90;;;0.70;;
14100;SDS011;7127;49.372;8.166;2023-09-18T12:21:53;2.58;;;0.90;;
14100;SDS011;7127;49.372;8.166;2023-09-18T12:24:23;1.15;;;0.88;;
14100;SDS011;7127;49.372;8.166;2023-09-18T12:26:51;1.77;;;0.77;;
14100;SDS011;7127;49.372;8.166;2023-09-18T12:29:18;1.35;;;0.95;;
14100;SDS011;7127;49.372;8.166;2023-09-18T12:31:45;1.55;;;1.05;;
14100;SDS011;7127;49.372;8.166;2023-09-18T12:34:17;5.55;;;0.80;;
14100;SDS011;7127;49.372;8.166;2023-09-18T12:36:46;0.85;;;0.60;;
14100;SDS011;7127;49.372;8.166;2023-09-18T12:39:13;1.48;;;0.80;;
14100;SDS011;7127;49.372;8.166;2023-09-18T12:41:41;1.27;;;0.80;;
14100;SDS011;7127;49.372;8.166;2023-09-18T12:44:10;0.80;;;0.50;;
14100;SDS011;7127;49.372;8.166;2023-09-18T12:46:39;4.20;;;1.15;;
14100;SDS011;7127;49.372;8.166;2023-09-18T12:49:18;2.58;;;1.00;;
14100;SDS011;7127;49.372;8.166;2023-09-18T12:51:54;3.35;;;1.10;;
14100;SDS011;7127;49.372;8.166;2023-09-18T12:54:37;0.98;;;0.80;;
14100;SDS011;7127;49.372;8.166;2023-09-18T12:57:05;1.20;;;0.60;;
14100;SDS011;7127;49.372;8.166;2023-09-18T12:59:33;1.85;;;0.90;;
14100;SDS011;7127;49.372;8.166;2023-09-18T13:02:03;1.20;;;0.70;;
14100;SDS011;7127;49.372;8.166;2023-09-18T13:04:32;1.75;;;1.15;;
14100;SDS011;7127;49.372;8.166;2023-09-18T13:07:09;1.25;;;0.73;;
14100;SDS011;7127;49.372;8.166;2023-09-18T13:09:37;3.40;;;0.80;;
14100;SDS011;7127;49.372;8.166;2023-09-18T13:12:04;1.02;;;0.70;;
14100;SDS011;7127;49.372;8.166;2023-09-18T13:17:35;1.38;;;0.80;;
14100;SDS011;7127;49.372;8.166;2023-09-18T13:20:12;1.35;;;0.80;;
14100;SDS011;7127;49.372;8.166;2023-09-18T13:22:42;1.67;;;0.90;;
14100;SDS011;7127;49.372;8.166;2023-09-18T13:25:18;1.63;;;0.80;;
14100;SDS011;7127;49.372;8.166;2023-09-18T13:27:46;2.30;;;0.95;;
14100;SDS011;7127;49.372;8.166;2023-09-18T13:30:13;0.95;;;0.70;;
14100;SDS011;7127;49.372;8.166;2023-09-18T13:32:42;2.72;;;1.00;;
14100;SDS011;7127;49.372;8.166;2023-09-18T13:35:10;1.35;;;0.90;;
14100;SDS011;7127;49.372;8.166;2023-09-18T13:37:40;2.55;;;1.20;;
14100;SDS011;7127;49.372;8.166;2023-09-18T13:40:07;1.70;;;0.88;;
14100;SDS011;7127;49.372;8.166;2023-09-18T13:42:35;1.30;;;0.93;;
14100;SDS011;7127;49.372;8.166;2023-09-18T13:45:02;1.70;;;0.90;;
14100;SDS011;7127;49.372;8.166;2023-09-18T13:47:31;2.08;;;0.98;;
14100;SDS011;7127;49.372;8.166;2023-09-18T13:49:59;1.25;;;0.85;;
14100;SDS011;7127;49.372;8.166;2023-09-18T13:52:26;2.53;;;0.98;;
14100;SDS011;7127;49.372;8.166;2023-09-18T13:54:54;1.27;;;0.90;;
14100;SDS011;7127;49.372;8.166;2023-09-18T13:57:21;3.13;;;0.93;;
14100;SDS011;7127;49.372;8.166;2023-09-18T13:59:49;2.28;;;0.80;;
14100;SDS011;7127;49.372;8.166;2023-09-18T14:02:16;2.05;;;0.80;;
14100;SDS011;7127;49.372;8.166;2023-09-18T14:04:44;1.27;;;0.80;;
14100;SDS011;7127;49.372;8.166;2023-09-18T14:07:11;1.55;;;0.90;;
14100;SDS011;7127;49.372;8.166;2023-09-18T14:09:38;1.40;;;0.93;;
14100;SDS011;7127;49.372;8.166;2023-09-18T14:12:07;1.52;;;0.90;;
14100;SDS011;7127;49.372;8.166;2023-09-18T14:14:34;1.55;;;0.90;;
14100;SDS011;7127;49.372;8.166;2023-09-18T14:17:01;1.40;;;1.00;;
14100;SDS011;7127;49.372;8.166;2023-09-18T14:19:28;1.35;;;0.88;;
14100;SDS011;7127;49.372;8.166;2023-09-18T14:21:55;0.98;;;0.88;;
14100;SDS011;7127;49.372;8.166;2023-09-18T14:24:22;1.30;;;0.88;;
14100;SDS011;7127;49.372;8.166;2023-09-18T14:26:50;1.33;;;0.95;;
14100;SDS011;7127;49.372;8.166;2023-09-18T14:29:19;0.63;;;0.63;;
14100;SDS011;7127;49.372;8.166;2023-09-18T14:31:45;0.95;;;0.80;;
14100;SDS011;7127;49.372;8.166;2023-09-18T14:34:14;1.20;;;0.90;;
14100;SDS011;7127;49.372;8.166;2023-09-18T14:36:42;1.63;;;0.80;;
14100;SDS011;7127;49.372;8.166;2023-09-18T14:39:09;1.05;;;0.68;;
14100;SDS011;7127;49.372;8.166;2023-09-18T14:41:36;0.98;;;0.60;;
14100;SDS011;7127;49.372;8.166;2023-09-18T14:44:03;3.17;;;0.90;;
14100;SDS011;7127;49.372;8.166;2023-09-18T14:46:32;1.40;;;0.98;;
14100;SDS011;7127;49.372;8.166;2023-09-18T14:48:59;1.17;;;0.77;;
14100;SDS011;7127;49.372;8.166;2023-09-18T14:51:26;0.85;;;0.55;;
14100;SDS011;7127;49.372;8.166;2023-09-18T14:53:54;2.15;;;0.88;;
14100;SDS011;7127;49.372;8.166;2023-09-18T14:56:21;1.45;;;0.73;;
14100;SDS011;7127;49.372;8.166;2023-09-18T14:58:47;1.80;;;0.80;;
14100;SDS011;7127;49.372;8.166;2023-09-18T15:01:16;2.00;;;0.90;;
14100;SDS011;7127;49.372;8.166;2023-09-18T15:03:45;1.95;;;0.90;;
14100;SDS011;7127;49.372;8.166;2023-09-18T15:06:12;1.60;;;0.88;;
14100;SDS011;7127;49.372;8.166;2023-09-18T15:08:39;0.77;;;0.70;;
14100;SDS011;7127;49.372;8.166;2023-09-18T15:11:06;3.80;;;1.00;;
14100;SDS011;7127;49.372;8.166;2023-09-18T15:13:33;0.93;;;0.80;;